Grizzly Air Cargo 5146


PAPG
Petersburg James A Johnson Airport
Petersburg, Alaska, US
PAJN
Juneau International Airport
Juneau, Alaska, US

Activity Log

Date Flight Route Aircraft Duration
No Flights Yet

Route Details

Aircraft Information
Primary: Boeing 727-200F
Backup: Boeing 737-800BCF
Route Data
Distance: 124nm
Sched. Duration: 0h 35m
Avg. Duration: 0h 00m (-35m)
Times Flown: 0
Recm'd Route: GORBY4 ODECO R1050 STVNS
Planned Altitude: 20,000ft
Origin Wx: PAPG 270156Z 12008KT 5SM -RA BR OVC022 03/02 A2972 RMK AO2 SLP068 P0006 T00330017
Dest. Wx: PAJN 270153Z 11022G29KT 10SM -RA FEW011 BKN036 OVC085 04/01 A2966 RMK AO2 PK WND 12030/0106 SLP044 P0001 T00390011
Notes:

Financial History
Total Freight: 0lbs
Average Load: 0lbs/flt
Fuel Used: 0lbs
Avg. Fuel Used: 0lbs/flt
Fuel Expense: $0
Avg. Fuel Expense: $0
Avg. Fuel Cost: $0/lbs
Total Gross Income: $0
Pilot Pay: $0
Total Expenses: $0
Total Revenue: $0
Average Revenue: $0